createdAt,value
2018-05-27T10:44:36.055Z,36.15
2018-05-27T10:45:35.791Z,36.29
2018-05-27T10:46:35.803Z,35.90
2018-05-27T10:47:35.788Z,36.00
2018-05-27T10:48:35.801Z,36.04
2018-05-27T10:50:36.291Z,36.25
2018-05-27T10:51:35.793Z,36.11
2018-05-27T10:52:35.780Z,36.17
2018-05-27T10:53:35.784Z,35.95
2018-05-27T10:54:35.791Z,36.07
2018-05-27T10:55:35.794Z,35.97
2018-05-27T10:56:35.988Z,35.73
2018-05-27T10:57:35.847Z,35.98
2018-05-27T10:58:35.826Z,36.02
2018-05-27T10:59:35.798Z,35.95
2018-05-27T11:00:35.868Z,35.88
2018-05-27T11:01:35.815Z,36.14
2018-05-27T11:02:36.168Z,36.03
2018-05-27T11:03:35.883Z,36.14
2018-05-27T11:04:35.856Z,35.88
2018-05-27T11:07:35.817Z,35.51
2018-05-27T11:08:35.860Z,35.84
2018-05-27T11:09:36.172Z,36.17
2018-05-27T11:10:36.655Z,36.15
2018-05-27T11:11:35.998Z,36.25
2018-05-27T11:12:35.832Z,36.30
2018-05-27T11:13:35.828Z,36.33
2018-05-27T11:14:36.000Z,36.19
2018-05-27T11:15:36.192Z,36.19
2018-05-27T11:16:35.957Z,36.20
2018-05-27T11:17:38.248Z,36.19
2018-05-27T11:18:35.849Z,36.27
2018-05-27T11:19:35.880Z,36.36
2018-05-27T11:20:35.864Z,36.42
2018-05-27T11:21:36.219Z,36.29
2018-05-27T11:22:35.988Z,36.49
2018-05-27T11:23:35.877Z,36.60
2018-05-27T11:24:35.875Z,36.67
2018-05-27T11:25:35.881Z,36.76
2018-05-27T11:26:35.876Z,36.81
2018-05-27T11:27:36.938Z,36.79
2018-05-27T11:28:37.746Z,36.89
2018-05-27T11:29:35.903Z,36.85
2018-05-27T11:30:35.912Z,36.76
2018-05-27T11:31:35.927Z,36.36
2018-05-27T11:32:35.908Z,36.30
2018-05-27T11:33:35.968Z,36.19
2018-05-27T11:34:38.416Z,35.88
2018-05-27T11:37:36.030Z,35.44
2018-05-27T11:38:35.947Z,35.44
2018-05-27T11:39:36.030Z,35.68
2018-05-27T11:40:36.065Z,36.03
2018-05-27T11:42:36.268Z,36.42
2018-05-27T11:43:35.970Z,36.47
2018-05-27T11:44:35.971Z,36.45
2018-05-27T11:45:36.029Z,36.22
2018-05-27T11:46:39.326Z,36.23
2018-05-27T11:47:35.989Z,36.14
2018-05-27T11:48:36.045Z,36.03
2018-05-27T11:49:36.312Z,36.03
2018-05-27T11:50:36.122Z,36.04
2018-05-27T11:51:36.065Z,35.98
2018-05-27T11:52:36.115Z,35.92
2018-05-27T11:53:36.018Z,35.87
2018-05-27T11:55:36.352Z,36.19
2018-05-27T11:56:36.054Z,36.29
2018-05-27T11:57:36.165Z,35.68
2018-05-27T11:58:36.112Z,35.60
2018-05-27T11:59:36.109Z,35.28
2018-05-27T12:00:36.058Z,35.29
2018-05-27T12:01:36.215Z,35.54
2018-05-27T12:02:36.393Z,35.44
2018-05-27T12:03:36.851Z,35.70
2018-05-27T12:04:36.131Z,35.63
2018-05-27T12:05:36.100Z,35.56
2018-05-27T12:06:36.110Z,35.87
2018-05-27T12:07:36.112Z,36.07
2018-05-27T12:08:36.102Z,36.14
2018-05-27T12:09:36.628Z,36.19
2018-05-27T12:10:37.195Z,36.40
2018-05-27T12:11:36.201Z,36.41
2018-05-27T12:12:36.206Z,36.38
2018-05-27T12:13:36.162Z,36.35
2018-05-27T12:14:36.147Z,36.38
2018-05-27T12:15:36.197Z,36.45
2018-05-27T12:16:36.508Z,36.54
2018-05-27T12:17:36.220Z,36.63
2018-05-27T12:18:36.159Z,36.74
2018-05-27T12:19:36.467Z,36.76
2018-05-27T12:20:36.184Z,36.67
2018-05-27T12:21:36.181Z,36.61
2018-05-27T12:22:36.244Z,36.66
2018-05-27T12:23:36.575Z,36.85
2018-05-27T12:24:36.252Z,36.61
2018-05-27T12:25:36.206Z,36.56
2018-05-27T12:26:36.218Z,36.60
2018-05-27T12:27:36.214Z,36.64
2018-05-27T12:28:36.238Z,36.57
2018-05-27T12:29:36.288Z,36.27
2018-05-27T12:30:36.292Z,36.07
2018-05-27T12:31:36.249Z,36.06
2018-05-27T12:32:36.256Z,36.11
2018-05-27T12:33:36.260Z,36.07
2018-05-27T12:34:36.268Z,36.14
2018-05-27T12:35:36.362Z,36.17
2018-05-27T12:36:36.626Z,36.20
2018-05-27T12:37:36.332Z,36.20
2018-05-27T12:38:36.290Z,36.19
2018-05-27T12:39:36.297Z,36.07
2018-05-27T12:40:36.305Z,36.23
2018-05-27T12:41:36.397Z,36.33
2018-05-27T12:42:36.671Z,36.42
2018-05-27T12:43:36.314Z,36.41
2018-05-27T12:44:36.312Z,36.44
2018-05-27T12:45:36.337Z,36.54
2018-05-27T12:46:36.332Z,36.54
2018-05-27T12:47:36.409Z,36.67
2018-05-27T12:48:36.706Z,36.67
2018-05-27T12:49:36.353Z,36.32
2018-05-27T12:50:36.363Z,35.73
2018-05-27T12:51:36.365Z,35.44
2018-05-27T12:52:36.383Z,35.26
2018-05-27T12:53:36.475Z,35.17
2018-05-27T12:54:36.738Z,35.14
2018-05-27T12:55:36.437Z,35.23
2018-05-27T12:56:36.383Z,35.48
2018-05-27T12:57:36.406Z,35.51
2018-05-27T12:58:36.395Z,35.66
2018-05-27T12:59:36.407Z,35.75
2018-05-27T13:00:36.765Z,35.63
2018-05-27T13:01:38.842Z,35.79
2018-05-27T13:02:37.252Z,36.03
2018-05-27T13:03:36.422Z,36.23
2018-05-27T13:04:36.436Z,36.48
2018-05-27T13:05:36.440Z,36.42
2018-05-27T13:06:36.833Z,36.60
2018-05-27T13:07:36.495Z,36.44
2018-05-27T13:08:38.358Z,36.38
2018-05-27T13:09:36.469Z,36.29
2018-05-27T13:10:36.466Z,36.47
2018-05-27T13:11:36.615Z,36.70
2018-05-27T13:12:36.776Z,36.79
2018-05-27T13:13:36.474Z,36.75
2018-05-27T13:14:36.563Z,36.78
2018-05-27T13:15:36.637Z,36.82
2018-05-27T13:16:36.573Z,36.96
2018-05-27T13:17:38.658Z,36.81
2018-05-27T13:19:36.830Z,36.86
2018-05-27T13:20:36.570Z,37.00
2018-05-27T13:21:36.573Z,37.16
2018-05-27T13:22:36.524Z,37.19
2018-05-27T13:23:36.543Z,36.93
2018-05-27T13:24:36.544Z,36.63
2018-05-27T13:25:36.560Z,36.66
2018-05-27T13:26:37.059Z,36.63
2018-05-27T13:27:36.627Z,36.20
2018-05-27T13:28:36.561Z,35.69
2018-05-27T13:29:36.576Z,35.61
2018-05-27T13:30:36.603Z,35.54
2018-05-27T13:31:36.606Z,35.63
2018-05-27T13:32:36.644Z,35.77
2018-05-27T13:33:36.957Z,35.84
2018-05-27T13:34:36.654Z,36.04
2018-05-27T13:35:36.626Z,36.19
2018-05-27T13:36:36.615Z,36.06
2018-05-27T13:37:36.616Z,36.33
2018-05-27T13:38:36.674Z,36.38
2018-05-27T13:39:36.759Z,36.45
2018-05-27T13:40:36.954Z,36.60
2018-05-27T13:41:36.652Z,36.69
2018-05-27T13:42:36.674Z,36.59
2018-05-27T13:43:41.754Z,36.44
2018-05-27T13:44:36.740Z,36.45
2018-05-27T13:45:36.777Z,36.61
2018-05-27T13:46:37.032Z,36.76
2018-05-27T13:47:36.682Z,36.83
2018-05-27T13:49:36.700Z,36.81
2018-05-27T13:50:36.784Z,36.93
2018-05-27T13:51:36.809Z,36.79
2018-05-27T13:52:37.125Z,36.45
2018-05-27T13:53:36.716Z,36.23
2018-05-27T13:54:36.739Z,36.17
2018-05-27T13:55:36.744Z,36.04
2018-05-27T13:57:36.788Z,36.22
2018-05-27T13:58:37.148Z,36.33
2018-05-27T13:59:36.817Z,36.61
2018-05-27T14:00:36.823Z,36.48
2018-05-27T14:01:36.769Z,36.56
2018-05-27T14:02:36.775Z,36.48
2018-05-27T14:03:36.836Z,36.57
2018-05-27T14:04:36.947Z,36.67
2018-05-27T14:05:37.095Z,36.54
2018-05-27T14:06:36.804Z,36.30
2018-05-27T14:07:36.860Z,36.29
2018-05-27T14:08:36.877Z,36.26
2018-05-27T14:09:36.816Z,36.14
2018-05-27T14:11:37.137Z,36.06
2018-05-27T14:12:36.835Z,35.92
2018-05-27T14:13:36.896Z,35.92
2018-05-27T14:14:36.960Z,35.88
2018-05-27T14:15:36.904Z,35.60
2018-05-27T14:17:37.171Z,35.76
2018-05-27T14:18:36.876Z,35.92
2018-05-27T14:19:36.949Z,36.03
2018-05-27T14:20:36.931Z,35.91
2018-05-27T14:21:37.138Z,35.91
2018-05-27T14:22:36.899Z,35.84
2018-05-27T14:23:36.903Z,35.84
2018-05-27T14:25:36.917Z,36.11
2018-05-27T14:26:37.212Z,36.07
2018-05-27T14:27:36.985Z,36.09
2018-05-27T14:28:36.985Z,35.94
2018-05-27T14:29:36.950Z,35.87
2018-05-27T14:30:37.239Z,35.75
2018-05-27T14:31:36.956Z,35.51
2018-05-27T14:32:36.976Z,35.51
2018-05-27T14:33:37.015Z,35.56
2018-05-27T14:34:37.113Z,35.60
2018-05-27T14:35:36.984Z,35.47
2018-05-27T14:36:37.282Z,35.47
2018-05-27T14:37:37.278Z,35.35
2018-05-27T14:38:36.994Z,35.31
2018-05-27T14:39:37.049Z,35.41
2018-05-27T14:40:38.356Z,35.54
2018-05-27T14:41:37.011Z,35.61
2018-05-27T14:42:37.314Z,35.72
2018-05-27T14:43:37.013Z,35.68
2018-05-27T14:44:37.107Z,35.66
2018-05-27T14:45:37.128Z,35.34
2018-05-27T14:46:37.028Z,35.05
2018-05-27T14:47:37.040Z,34.86
2018-05-27T14:48:37.339Z,34.80
2018-05-27T14:49:37.073Z,35.10
2018-05-27T14:50:37.108Z,35.28
2018-05-27T14:51:37.108Z,35.53
2018-05-27T14:52:37.059Z,35.79
2018-05-27T14:53:37.076Z,35.98
2018-05-27T14:54:37.374Z,36.04
2018-05-27T14:56:37.131Z,36.06
2018-05-27T14:57:37.146Z,35.87
2018-05-27T14:58:37.157Z,35.88
2018-05-27T14:59:37.104Z,35.50
2018-05-27T15:00:37.411Z,35.28
2018-05-27T15:01:37.109Z,35.32
2018-05-27T15:02:37.126Z,35.42
2018-05-27T15:03:37.180Z,35.48
2018-05-27T15:05:37.185Z,34.38
2018-05-27T15:08:37.438Z,33.67
2018-05-27T15:09:37.213Z,33.62
2018-05-27T15:10:37.206Z,33.78
2018-05-27T15:11:37.212Z,34.07
2018-05-27T15:12:37.166Z,34.10
2018-05-27T15:13:37.155Z,34.08
2018-05-27T15:14:37.463Z,34.03
2018-05-27T15:15:37.164Z,33.86
2018-05-27T15:16:37.278Z,33.67
2018-05-27T15:17:37.226Z,33.92
2018-05-27T15:18:37.243Z,33.95
2018-05-27T15:19:37.198Z,34.16
2018-05-27T15:20:37.495Z,34.50
2018-05-27T15:21:37.413Z,34.62
2018-05-27T15:23:37.258Z,34.83
2018-05-27T15:24:37.258Z,34.82
2018-05-27T15:25:37.219Z,34.66
2018-05-27T15:26:37.515Z,34.62
2018-05-27T15:28:37.421Z,34.64
2018-05-27T15:29:37.279Z,34.86
2018-05-27T15:30:38.404Z,34.79
2018-05-27T15:31:37.224Z,34.82
2018-05-27T15:32:37.541Z,34.70
2018-05-27T15:33:37.252Z,34.56
2018-05-27T15:34:37.246Z,34.38
2018-05-27T15:35:37.375Z,34.13
2018-05-27T15:36:37.305Z,33.57
2018-05-27T15:37:37.386Z,33.29
2018-05-27T15:38:37.319Z,32.73
2018-05-27T15:39:37.571Z,32.09
2018-05-27T15:40:37.271Z,32.13
2018-05-27T15:41:37.265Z,32.33
2018-05-27T15:42:37.568Z,32.64
2018-05-27T15:43:37.344Z,33.03
2018-05-27T15:44:37.336Z,32.57
2018-05-27T15:45:37.839Z,32.02
2018-05-27T15:46:37.586Z,31.95
2018-05-27T15:47:37.342Z,31.51
2018-05-27T15:48:37.295Z,31.04
2018-05-27T15:49:37.342Z,30.90
2018-05-27T15:50:37.341Z,31.05
2018-05-27T15:51:37.398Z,30.77
2018-05-27T15:52:37.599Z,30.39
2018-05-27T15:53:37.306Z,30.14
2018-05-27T15:54:37.491Z,30.29
2018-05-27T15:55:37.356Z,30.75
2018-05-27T15:56:37.951Z,31.41
2018-05-27T15:57:37.318Z,31.78
2018-05-27T15:58:37.603Z,32.16
2018-05-27T15:59:37.312Z,32.33
2018-05-27T16:00:37.306Z,32.43
2018-05-27T16:01:37.314Z,32.82
2018-05-27T16:02:37.369Z,32.79
2018-05-27T16:03:37.366Z,32.76
2018-05-27T16:04:37.747Z,32.57
2018-05-27T16:05:37.327Z,32.55
2018-05-27T16:06:37.369Z,32.45
2018-05-27T16:07:37.327Z,32.41
2018-05-27T16:08:37.364Z,32.42
2018-05-27T16:09:37.471Z,32.13
2018-05-27T16:10:37.681Z,32.13
2018-05-27T16:11:37.330Z,32.08
2018-05-27T16:12:37.323Z,32.17
2018-05-27T16:13:37.329Z,32.53
2018-05-27T16:14:37.371Z,32.64
2018-05-27T16:15:37.379Z,32.64
2018-05-27T16:16:37.632Z,32.58
2018-05-27T16:17:37.332Z,32.68
2018-05-27T16:18:37.337Z,32.58
2018-05-27T16:19:37.339Z,32.51
2018-05-27T16:20:37.378Z,32.45
2018-05-27T16:21:37.383Z,32.46
2018-05-27T16:22:37.480Z,32.53
2018-05-27T16:23:37.641Z,32.41
2018-05-27T16:24:37.330Z,32.51
2018-05-27T16:25:37.344Z,32.57
2018-05-27T16:26:37.329Z,32.54
2018-05-27T16:27:37.341Z,32.54
2018-05-27T16:28:37.437Z,32.50
2018-05-27T16:29:37.391Z,32.55
2018-05-27T16:30:37.698Z,32.58
2018-05-27T16:31:37.341Z,32.80
2018-05-27T16:32:37.343Z,32.95
2018-05-27T16:33:37.812Z,33.06
2018-05-27T16:34:37.740Z,33.12
2018-05-27T16:35:37.543Z,33.07
2018-05-27T16:36:37.827Z,32.97
2018-05-27T16:37:37.624Z,32.98
2018-05-27T16:38:37.340Z,32.75
2018-05-27T16:39:37.348Z,32.77
2018-05-27T16:40:37.368Z,32.60
2018-05-27T16:41:37.351Z,32.58
2018-05-27T16:42:37.653Z,32.39
2018-05-27T16:43:37.481Z,32.28
2018-05-27T16:44:37.404Z,32.21
2018-05-27T16:45:37.402Z,32.02
2018-05-27T16:46:37.357Z,32.09
2018-05-27T16:47:37.381Z,32.08
2018-05-27T16:48:37.651Z,32.23
2018-05-27T16:49:37.363Z,32.21
2018-05-27T16:50:37.478Z,31.89
2018-05-27T16:51:37.407Z,31.41
2018-05-27T16:52:37.417Z,30.97
2018-05-27T16:53:37.362Z,30.58
2018-05-27T16:54:37.671Z,30.37
2018-05-27T16:55:37.361Z,30.29
2018-05-27T16:56:37.524Z,30.52
2018-05-27T16:57:37.406Z,30.65
2018-05-27T16:58:37.413Z,30.93
2018-05-27T16:59:37.365Z,31.26
2018-05-27T17:00:37.661Z,31.46
2018-05-27T17:01:37.498Z,31.24
2018-05-27T17:02:37.356Z,31.10
2018-05-27T17:03:37.407Z,31.02
2018-05-27T17:04:37.460Z,30.78
2018-05-27T17:05:37.405Z,30.68
2018-05-27T17:06:37.662Z,30.56
2018-05-27T17:07:37.360Z,30.36
2018-05-27T17:08:37.410Z,30.26
2018-05-27T17:09:37.357Z,30.18
2018-05-27T17:10:37.512Z,30.03
2018-05-27T17:11:37.369Z,29.80
2018-05-27T17:12:37.702Z,29.73
2018-05-27T17:13:37.645Z,29.61
2018-05-27T17:14:37.359Z,29.77
2018-05-27T17:15:37.350Z,29.84
2018-05-27T17:16:37.361Z,29.93
2018-05-27T17:18:10.619Z,30.02
2018-05-27T17:19:37.713Z,30.05
2018-05-27T17:20:37.504Z,29.98
2018-05-27T17:21:37.358Z,29.78
2018-05-27T17:22:37.356Z,29.50
2018-05-27T17:23:37.358Z,29.28
2018-05-27T17:24:37.357Z,29.02
2018-05-27T17:25:37.341Z,28.81
2018-05-27T17:26:37.690Z,28.71
2018-05-27T17:27:37.497Z,28.56
2018-05-27T17:28:37.345Z,28.43
2018-05-27T17:29:37.337Z,28.43
2018-05-27T17:30:37.328Z,28.24
2018-05-27T17:31:37.437Z,28.17
2018-05-27T17:32:37.628Z,28.13
2018-05-27T17:33:37.439Z,28.17
2018-05-27T17:34:37.369Z,28.09
2018-05-27T17:35:37.525Z,28.05
2018-05-27T17:36:37.334Z,28.03
2018-05-27T17:37:37.318Z,28.03
2018-05-27T17:38:37.616Z,27.94
2018-05-27T17:39:37.319Z,27.88
2018-05-27T17:40:37.328Z,27.72
2018-05-27T17:41:37.456Z,27.70
2018-05-27T17:42:37.296Z,27.72
2018-05-27T17:43:37.297Z,27.68
2018-05-27T17:44:37.596Z,27.60
2018-05-27T17:45:37.298Z,27.63
2018-05-27T17:46:37.284Z,27.50
2018-05-27T17:47:37.403Z,27.41
2018-05-27T17:48:37.385Z,27.50
2018-05-27T17:49:37.272Z,27.42
2018-05-27T17:50:37.329Z,27.52
2018-05-27T17:51:37.596Z,27.57
2018-05-27T17:52:37.321Z,27.70
2018-05-27T17:53:37.310Z,27.68
2018-05-27T17:54:37.355Z,27.75
2018-05-27T17:55:37.348Z,27.70
2018-05-27T17:56:37.249Z,27.75
2018-05-27T17:57:37.538Z,27.73
2018-05-27T17:58:37.258Z,27.72
2018-05-27T17:59:37.286Z,27.64
2018-05-27T18:00:37.298Z,27.57
2018-05-27T18:01:37.225Z,27.42
2018-05-27T18:02:37.249Z,27.37
2018-05-27T18:04:10.780Z,27.20
2018-05-27T18:04:37.212Z,27.17
2018-05-27T18:05:37.276Z,27.10
2018-05-27T18:06:37.310Z,27.05
2018-05-27T18:07:37.644Z,26.97
2018-05-27T18:08:37.194Z,26.93
2018-05-27T18:09:37.493Z,26.82
2018-05-27T18:10:37.184Z,26.86
2018-05-27T18:11:37.192Z,26.78
2018-05-27T18:12:37.171Z,26.70
2018-05-27T18:13:37.221Z,26.68
2018-05-27T18:14:37.215Z,26.51
2018-05-27T18:15:37.551Z,26.51
2018-05-27T18:16:37.153Z,26.43
2018-05-27T18:17:37.149Z,26.43
2018-05-27T18:18:37.150Z,26.34
2018-05-27T18:19:37.132Z,26.36
2018-05-27T18:20:37.191Z,26.41
2018-05-27T18:21:37.484Z,26.34
2018-05-27T18:22:37.129Z,26.28
2018-05-27T18:23:37.118Z,26.20
2018-05-27T18:24:37.111Z,26.23
2018-05-27T18:25:37.095Z,26.15
2018-05-27T18:26:37.149Z,26.20
2018-05-27T18:27:37.136Z,26.19
2018-05-27T18:28:37.437Z,26.10
2018-05-27T18:29:37.088Z,25.98
2018-05-27T18:30:37.067Z,25.98
2018-05-27T18:31:37.068Z,25.95
2018-05-27T18:32:37.069Z,25.98
2018-05-27T18:33:37.107Z,25.85
2018-05-27T18:34:37.394Z,25.98
2018-05-27T18:35:37.089Z,25.86
2018-05-27T18:36:37.044Z,25.78
2018-05-27T18:37:37.026Z,25.70
2018-05-27T18:38:37.019Z,25.63
2018-05-27T18:39:37.080Z,25.63
2018-05-27T18:40:37.364Z,25.56
2018-05-27T18:41:37.006Z,25.56
2018-05-27T18:42:37.000Z,25.46
2018-05-27T18:43:37.391Z,25.49
2018-05-27T18:44:37.004Z,25.45
2018-05-27T18:45:37.078Z,25.38
2018-05-27T18:46:37.196Z,25.46
2018-05-27T18:47:37.354Z,25.38
2018-05-27T18:48:36.980Z,25.33
2018-05-27T18:49:36.951Z,25.28
2018-05-27T18:50:36.949Z,25.31
2018-05-27T18:51:37.643Z,25.33
2018-05-27T18:52:37.035Z,25.26
2018-05-27T18:53:36.986Z,25.26
2018-05-27T18:54:37.387Z,25.21
2018-05-27T18:55:36.944Z,25.30
2018-05-27T18:56:36.914Z,25.33
2018-05-27T18:57:36.901Z,25.27
2018-05-27T18:58:36.895Z,25.22
2018-05-27T18:59:36.881Z,25.31
2018-05-27T19:00:36.938Z,25.31
2018-05-27T19:01:37.429Z,25.26
2018-05-27T19:02:36.917Z,25.34
2018-05-27T19:04:36.853Z,25.27
2018-05-27T19:05:36.838Z,25.15
2018-05-27T19:06:36.885Z,25.18
2018-05-27T19:07:36.874Z,25.18
2018-05-27T19:08:37.179Z,25.09
2018-05-27T19:09:36.830Z,24.99
2018-05-27T19:10:36.801Z,24.91
2018-05-27T19:11:36.802Z,24.91
2018-05-27T19:12:36.836Z,24.84
2018-05-27T19:13:36.833Z,24.76
2018-05-27T19:14:36.787Z,24.65
2018-05-27T19:15:37.064Z,24.68
2018-05-27T19:16:36.765Z,24.58
2018-05-27T19:17:36.755Z,24.52
2018-05-27T19:18:36.799Z,24.33
2018-05-27T19:19:36.840Z,24.28
2018-05-27T19:20:36.781Z,24.25
2018-05-27T19:21:36.724Z,24.13
2018-05-27T19:22:36.972Z,24.15
2018-05-27T19:23:36.717Z,23.97
2018-05-27T19:24:36.751Z,24.00
2018-05-27T19:25:36.750Z,23.89
2018-05-27T19:27:36.680Z,23.84
2018-05-27T19:28:36.670Z,23.85
2018-05-27T19:29:36.958Z,23.74
2018-05-27T19:30:37.310Z,23.73
2018-05-27T19:31:36.648Z,23.73
2018-05-27T19:32:36.634Z,23.61
2018-05-27T19:33:36.627Z,23.63
2018-05-27T19:34:36.620Z,23.61
2018-05-27T19:35:36.920Z,23.67
2018-05-27T19:36:36.665Z,23.67
2018-05-27T19:37:36.645Z,23.69
2018-05-27T19:38:36.656Z,23.69
2018-05-27T19:39:36.591Z,23.69
2018-05-27T19:40:36.580Z,23.69
2018-05-27T19:41:36.890Z,23.61
2018-05-27T19:42:36.680Z,23.69
2018-05-27T19:43:36.596Z,23.67
2018-05-27T19:44:36.539Z,23.69
2018-05-27T19:46:36.535Z,23.61
2018-05-27T19:47:36.822Z,23.60
2018-05-27T19:48:36.563Z,23.54
2018-05-27T19:49:36.555Z,23.51
2018-05-27T19:50:36.496Z,23.51
2018-05-27T19:51:36.491Z,23.46
2018-05-27T19:52:36.505Z,23.49
2018-05-27T19:53:36.766Z,23.39
2018-05-27T19:54:36.671Z,23.37
2018-05-27T19:55:36.456Z,23.34
2018-05-27T19:56:36.639Z,23.34
2018-05-27T19:57:36.449Z,23.36
2018-05-27T19:59:36.717Z,23.33
2018-05-27T20:00:36.465Z,23.37
2018-05-27T20:01:36.515Z,23.28
2018-05-27T20:02:36.445Z,23.34
2018-05-27T20:04:36.388Z,23.31
2018-05-27T20:05:36.401Z,23.31
2018-05-27T20:06:36.710Z,23.28
2018-05-27T20:07:36.410Z,23.21
2018-05-27T20:08:36.419Z,23.22
2018-05-27T20:09:36.362Z,23.28
2018-05-27T20:10:36.325Z,23.29
2018-05-27T20:11:36.318Z,23.33
2018-05-27T20:12:36.667Z,23.33
2018-05-27T20:13:36.401Z,23.31
2018-05-27T20:14:36.293Z,23.25
2018-05-27T20:15:36.295Z,23.21
2018-05-27T20:16:36.275Z,23.23
2018-05-27T20:17:36.290Z,23.13
2018-05-27T20:18:36.420Z,23.21
2018-05-27T20:19:36.559Z,23.21
2018-05-27T20:20:36.256Z,23.22
2018-05-27T20:21:36.260Z,23.29
2018-05-27T20:22:36.232Z,23.33
2018-05-27T20:23:36.250Z,23.23
2018-05-27T20:24:36.281Z,23.26
2018-05-27T20:25:36.256Z,23.34
2018-05-27T20:26:36.536Z,23.36
2018-05-27T20:27:36.199Z,23.34
2018-05-27T20:28:36.182Z,23.29
2018-05-27T20:29:36.172Z,23.14
2018-05-27T20:30:36.210Z,23.14
2018-05-27T20:31:36.210Z,23.22
2018-05-27T20:32:36.140Z,23.10
2018-05-27T20:33:36.135Z,23.07
2018-05-27T20:34:36.120Z,22.99
2018-05-27T20:35:36.128Z,22.99
2018-05-27T20:36:36.159Z,22.96
2018-05-27T20:37:36.143Z,23.03
2018-05-27T20:38:36.085Z,22.98
2018-05-27T20:39:36.376Z,22.93
2018-05-27T20:40:36.090Z,22.83
2018-05-27T20:41:36.117Z,22.89
2018-05-27T20:42:36.098Z,22.86
2018-05-27T20:43:36.090Z,22.85
2018-05-27T20:44:36.052Z,22.81
2018-05-27T20:45:36.022Z,22.78
2018-05-27T20:46:36.317Z,22.81
2018-05-27T20:47:36.008Z,22.81
2018-05-27T20:48:36.055Z,22.89
2018-05-27T20:49:36.125Z,22.92
2018-05-27T20:50:36.045Z,22.85
2018-05-27T20:51:35.969Z,22.81
2018-05-27T20:52:35.971Z,22.77
2018-05-27T20:53:36.254Z,22.74
2018-05-27T20:54:36.071Z,22.68
2018-05-27T20:55:35.981Z,22.64
2018-05-27T20:56:36.125Z,22.71
2018-05-27T20:57:35.919Z,22.64
2018-05-27T20:58:35.923Z,22.61
2018-05-27T20:59:35.933Z,22.74
2018-05-27T21:00:36.235Z,22.66
2018-05-27T21:01:35.925Z,22.52
2018-05-27T21:02:35.869Z,22.55
2018-05-27T21:03:35.864Z,22.48
2018-05-27T21:04:35.848Z,22.44
2018-05-27T21:05:35.839Z,22.33
2018-05-27T21:06:35.884Z,22.31
2018-05-27T21:07:36.204Z,22.34
2018-05-27T21:08:35.819Z,22.31
2018-05-27T21:09:35.809Z,22.27
2018-05-27T21:10:35.793Z,22.23
2018-05-27T21:11:35.803Z,22.27
2018-05-27T21:12:36.525Z,22.27
2018-05-27T21:13:36.073Z,22.19
2018-05-27T21:14:36.039Z,22.13
2018-05-27T21:15:35.756Z,22.11
2018-05-27T21:16:35.748Z,22.16
2018-05-27T21:18:35.782Z,22.07
2018-05-27T21:19:35.777Z,22.03
2018-05-27T21:20:36.015Z,22.03
2018-05-27T21:21:35.719Z,22.07
2018-05-27T21:22:35.748Z,22.09
2018-05-27T21:23:35.687Z,22.06
2018-05-27T21:24:35.718Z,21.97
2018-05-27T21:26:35.994Z,22.01
2018-05-27T21:27:35.696Z,21.96
2018-05-27T21:28:35.637Z,21.93
2018-05-27T21:29:35.615Z,21.91
2018-05-27T21:30:35.657Z,21.81
2018-05-27T21:31:35.605Z,21.78
2018-05-27T21:32:35.951Z,21.80
2018-05-27T21:33:35.802Z,21.71
2018-05-27T21:34:35.588Z,21.73
2018-05-27T21:35:35.575Z,21.80
2018-05-27T21:36:35.568Z,21.65
2018-05-27T21:37:35.556Z,21.58
2018-05-27T21:38:35.891Z,21.56
2018-05-27T21:39:35.573Z,21.62
2018-05-27T21:40:35.524Z,21.51
2018-05-27T21:41:35.505Z,21.50
2018-05-27T21:42:35.501Z,21.53
2018-05-27T21:43:35.494Z,21.63
2018-05-27T21:44:35.936Z,21.53
2018-05-27T21:45:35.475Z,21.58
2018-05-27T21:46:35.458Z,21.48
2018-05-27T21:47:35.444Z,21.48
2018-05-27T21:48:35.442Z,21.45
2018-05-27T21:49:35.432Z,21.44
2018-05-27T21:50:35.877Z,21.44
2018-05-27T21:51:35.464Z,21.38
2018-05-27T21:52:35.505Z,21.37
2018-05-27T21:53:35.387Z,21.34
2018-05-27T21:54:35.378Z,21.29
2018-05-27T21:55:35.378Z,21.26
2018-05-27T21:56:35.427Z,21.22
2018-05-27T21:57:35.714Z,21.20
2018-05-27T21:58:35.424Z,21.26
2018-05-27T21:59:35.355Z,21.19
2018-05-27T22:00:35.326Z,21.13
2018-05-27T22:01:35.310Z,21.11
2018-05-27T22:02:35.359Z,21.03
2018-05-27T22:03:35.401Z,21.01
2018-05-27T22:04:35.588Z,20.92
2018-05-27T22:05:35.287Z,20.89
2018-05-27T22:06:35.262Z,20.80
2018-05-27T22:07:35.257Z,20.77
2018-05-27T22:08:35.294Z,20.75
2018-05-27T22:09:35.282Z,20.75
2018-05-27T22:11:35.573Z,20.74
2018-05-27T22:12:35.209Z,20.80
2018-05-27T22:13:35.192Z,20.70
2018-05-27T22:14:35.183Z,20.63
2018-05-27T22:15:35.282Z,20.48
2018-05-27T22:16:35.243Z,20.46
2018-05-27T22:17:35.203Z,20.39
2018-05-27T22:18:35.456Z,20.48
2018-05-27T22:19:35.137Z,20.52
2018-05-27T22:21:35.174Z,20.42
2018-05-27T22:22:35.153Z,20.46
2018-05-27T22:23:35.099Z,20.33
2018-05-27T22:24:35.089Z,20.30
2018-05-27T22:25:35.387Z,20.27
2018-05-27T22:26:35.060Z,20.22
2018-05-27T22:27:35.209Z,20.19
2018-05-27T22:28:35.101Z,20.15
2018-05-27T22:29:35.040Z,20.08
2018-05-27T22:30:35.027Z,20.11
2018-05-27T22:31:35.020Z,20.09
2018-05-27T22:32:35.308Z,20.07
2018-05-27T22:33:35.041Z,20.07
2018-05-27T22:34:35.137Z,19.96
2018-05-27T22:35:34.975Z,19.92
2018-05-27T22:36:34.962Z,19.96
2018-05-27T22:37:34.955Z,19.93
2018-05-27T22:38:34.956Z,20.07
2018-05-27T22:39:35.234Z,20.04
2018-05-27T22:40:34.981Z,20.08
2018-05-27T22:41:34.960Z,20.04
2018-05-27T22:42:34.898Z,20.04
2018-05-27T22:43:34.892Z,20.09
2018-05-27T22:44:34.886Z,20.15
2018-05-27T22:45:35.175Z,20.02
2018-05-27T22:46:34.923Z,20.11
2018-05-27T22:47:34.900Z,20.19
2018-05-27T22:48:34.836Z,20.14
2018-05-27T22:49:34.835Z,20.18
2018-05-27T22:50:34.814Z,20.17
2018-05-27T22:51:35.214Z,20.15
2018-05-27T22:52:34.855Z,20.19
2018-05-27T22:53:34.836Z,20.15
2018-05-27T22:54:34.782Z,20.08
2018-05-27T22:55:34.772Z,20.11
2018-05-27T22:56:34.756Z,20.07
2018-05-27T22:57:34.754Z,20.05
2018-05-27T22:58:34.789Z,20.07
2018-05-27T22:59:34.773Z,20.09
2018-05-27T23:00:34.723Z,20.04
2018-05-27T23:01:34.703Z,20.09
2018-05-27T23:02:34.691Z,20.05
2018-05-27T23:03:34.989Z,20.08
2018-05-27T23:04:34.731Z,20.05
2018-05-27T23:05:34.731Z,20.02
2018-05-27T23:06:34.707Z,19.96
2018-05-27T23:07:34.750Z,20.08
2018-05-27T23:08:34.642Z,19.93
2018-05-27T23:10:34.925Z,19.97
2018-05-27T23:11:34.659Z,20.05
2018-05-27T23:12:34.700Z,19.97
2018-05-27T23:13:34.649Z,19.96
2018-05-27T23:14:34.590Z,19.97
2018-05-27T23:16:34.903Z,19.96
2018-05-27T23:17:34.554Z,19.92
2018-05-27T23:18:34.638Z,19.94
2018-05-27T23:19:34.626Z,19.97
2018-05-27T23:20:34.568Z,19.96
2018-05-27T23:21:34.556Z,19.97
2018-05-27T23:22:34.749Z,19.97
2018-05-27T23:23:34.485Z,19.99
2018-05-27T23:24:34.532Z,19.94
2018-05-27T23:25:34.515Z,19.92
2018-05-27T23:26:34.503Z,19.90
2018-05-27T23:27:34.443Z,19.89
2018-05-27T23:28:34.431Z,19.94
2018-05-27T23:29:34.716Z,19.94
2018-05-27T23:30:34.461Z,19.92
2018-05-27T23:31:34.443Z,19.84
2018-05-27T23:32:34.435Z,19.84
2018-05-27T23:33:34.372Z,19.84
2018-05-27T23:34:34.369Z,19.78
2018-05-27T23:35:34.363Z,19.78
2018-05-27T23:36:34.800Z,19.78
2018-05-27T23:37:34.331Z,19.74
2018-05-27T23:38:34.320Z,19.67
2018-05-27T23:39:34.313Z,19.63
2018-05-27T23:40:34.322Z,19.64
2018-05-27T23:41:34.296Z,19.63
2018-05-27T23:42:34.327Z,19.67
2018-05-27T23:43:34.634Z,19.71
2018-05-27T23:44:34.316Z,19.60
2018-05-27T23:45:34.255Z,19.70
2018-05-27T23:46:34.242Z,19.57
2018-05-27T23:47:34.227Z,19.63
2018-05-27T23:48:34.316Z,19.71
2018-05-27T23:49:34.264Z,19.57
2018-05-27T23:50:34.548Z,19.60
2018-05-27T23:51:34.186Z,19.67
2018-05-27T23:52:34.174Z,19.67
2018-05-27T23:53:34.166Z,19.63
2018-05-27T23:54:34.208Z,19.67
2018-05-27T23:55:34.191Z,19.64
2018-05-27T23:56:34.281Z,19.67
2018-05-27T23:57:34.423Z,19.64
2018-05-27T23:58:34.118Z,19.68
2018-05-27T23:59:34.116Z,19.64
